sensor_id;sensor_type;location;lat;lon;timestamp;pressure;altitude;pressure_sealevel;temperature;humidity
6829;BME280;17930;48.592;8.868;2023-07-22T00:00:48;96746.88;;;12.28;100.00
6829;BME280;17930;48.592;8.868;2023-07-22T00:03:15;96754.31;;;12.22;100.00
6829;BME280;17930;48.592;8.868;2023-07-22T00:05:42;96749.19;;;12.12;100.00
6829;BME280;17930;48.592;8.868;2023-07-22T00:08:09;96755.47;;;11.92;100.00
6829;BME280;17930;48.592;8.868;2023-07-22T00:10:40;96753.69;;;11.88;100.00
6829;BME280;17930;48.592;8.868;2023-07-22T00:13:07;96759.00;;;12.01;100.00
6829;BME280;17930;48.592;8.868;2023-07-22T00:15:33;96751.56;;;12.31;100.00
6829;BME280;17930;48.592;8.868;2023-07-22T00:18:00;96757.06;;;12.48;100.00
6829;BME280;17930;48.592;8.868;2023-07-22T00:20:27;96757.06;;;12.48;100.00
6829;BME280;17930;48.592;8.868;2023-07-22T00:22:54;96754.47;;;12.48;100.00
6829;BME280;17930;48.592;8.868;2023-07-22T00:25:21;96759.56;;;12.58;100.00
6829;BME280;17930;48.592;8.868;2023-07-22T00:27:50;96753.34;;;12.54;100.00
6829;BME280;17930;48.592;8.868;2023-07-22T00:30:16;96752.34;;;12.50;100.00
6829;BME280;17930;48.592;8.868;2023-07-22T00:32:43;96750.16;;;12.57;100.00
6829;BME280;17930;48.592;8.868;2023-07-22T00:35:10;96754.97;;;12.50;100.00
6829;BME280;17930;48.592;8.868;2023-07-22T00:37:37;96754.31;;;12.22;100.00
6829;BME280;17930;48.592;8.868;2023-07-22T00:40:04;96754.69;;;11.92;100.00
6829;BME280;17930;48.592;8.868;2023-07-22T00:42:31;96752.81;;;11.74;100.00
6829;BME280;17930;48.592;8.868;2023-07-22T00:44:59;96750.69;;;11.76;100.00
6829;BME280;17930;48.592;8.868;2023-07-22T00:47:26;96752.00;;;11.97;100.00
6829;BME280;17930;48.592;8.868;2023-07-22T00:49:54;96743.53;;;12.05;100.00
6829;BME280;17930;48.592;8.868;2023-07-22T00:52:20;96748.88;;;12.18;100.00
6829;BME280;17930;48.592;8.868;2023-07-22T00:54:47;96740.66;;;12.06;100.00
6829;BME280;17930;48.592;8.868;2023-07-22T00:57:15;96738.31;;;12.05;100.00
6829;BME280;17930;48.592;8.868;2023-07-22T00:59:42;96739.97;;;12.19;100.00
6829;BME280;17930;48.592;8.868;2023-07-22T01:02:10;96730.72;;;12.27;100.00
6829;BME280;17930;48.592;8.868;2023-07-22T01:04:37;96727.53;;;12.29;100.00
6829;BME280;17930;48.592;8.868;2023-07-22T01:07:05;96736.81;;;12.40;100.00
6829;BME280;17930;48.592;8.868;2023-07-22T01:09:36;96735.25;;;12.39;100.00
6829;BME280;17930;48.592;8.868;2023-07-22T01:12:04;96737.50;;;12.46;100.00
6829;BME280;17930;48.592;8.868;2023-07-22T01:14:32;96732.13;;;12.37;100.00
6829;BME280;17930;48.592;8.868;2023-07-22T01:16:59;96728.81;;;12.32;100.00
6829;BME280;17930;48.592;8.868;2023-07-22T01:19:28;96723.84;;;12.12;100.00
6829;BME280;17930;48.592;8.868;2023-07-22T01:21:57;96728.28;;;12.12;100.00
6829;BME280;17930;48.592;8.868;2023-07-22T01:24:25;96727.94;;;12.00;100.00
6829;BME280;17930;48.592;8.868;2023-07-22T01:26:52;96710.38;;;11.82;100.00
6829;BME280;17930;48.592;8.868;2023-07-22T01:29:18;96717.59;;;11.67;100.00
6829;BME280;17930;48.592;8.868;2023-07-22T01:31:48;96713.25;;;11.80;100.00
6829;BME280;17930;48.592;8.868;2023-07-22T01:34:15;96720.09;;;11.76;100.00
6829;BME280;17930;48.592;8.868;2023-07-22T01:36:42;96711.78;;;11.51;100.00
6829;BME280;17930;48.592;8.868;2023-07-22T01:39:09;96721.41;;;11.27;100.00
6829;BME280;17930;48.592;8.868;2023-07-22T01:41:38;96721.59;;;11.08;100.00
6829;BME280;17930;48.592;8.868;2023-07-22T01:44:04;96721.69;;;10.98;100.00
6829;BME280;17930;48.592;8.868;2023-07-22T01:46:31;96720.66;;;10.94;100.00
6829;BME280;17930;48.592;8.868;2023-07-22T01:48:57;96717.56;;;10.92;100.00
6829;BME280;17930;48.592;8.868;2023-07-22T01:51:24;96724.31;;;10.93;100.00
6829;BME280;17930;48.592;8.868;2023-07-22T01:53:51;96715.44;;;10.94;100.00
6829;BME280;17930;48.592;8.868;2023-07-22T01:56:18;96714.41;;;10.95;100.00
6829;BME280;17930;48.592;8.868;2023-07-22T01:58:47;96705.78;;;10.94;100.00
6829;BME280;17930;48.592;8.868;2023-07-22T02:01:13;96711.88;;;10.85;100.00
6829;BME280;17930;48.592;8.868;2023-07-22T02:03:41;96710.88;;;10.81;100.00
6829;BME280;17930;48.592;8.868;2023-07-22T02:06:08;96711.25;;;10.98;100.00
6829;BME280;17930;48.592;8.868;2023-07-22T02:08:34;96713.03;;;11.02;100.00
6829;BME280;17930;48.592;8.868;2023-07-22T02:11:03;96718.56;;;10.96;100.00
6829;BME280;17930;48.592;8.868;2023-07-22T02:13:30;96721.22;;;10.91;100.00
6829;BME280;17930;48.592;8.868;2023-07-22T02:15:58;96722.81;;;10.87;100.00
6829;BME280;17930;48.592;8.868;2023-07-22T02:18:25;96728.25;;;10.90;100.00
6829;BME280;17930;48.592;8.868;2023-07-22T02:20:52;96725.16;;;11.17;100.00
6829;BME280;17930;48.592;8.868;2023-07-22T02:23:19;96731.59;;;11.24;100.00
6829;BME280;17930;48.592;8.868;2023-07-22T02:25:48;96732.69;;;11.46;100.00
6829;BME280;17930;48.592;8.868;2023-07-22T02:28:15;96734.34;;;11.37;100.00
6829;BME280;17930;48.592;8.868;2023-07-22T02:30:41;96740.59;;;11.13;100.00
6829;BME280;17930;48.592;8.868;2023-07-22T02:33:10;96740.91;;;11.07;100.00
6829;BME280;17930;48.592;8.868;2023-07-22T02:35:36;96742.09;;;10.91;100.00
6829;BME280;17930;48.592;8.868;2023-07-22T02:38:03;96744.09;;;10.99;100.00
6829;BME280;17930;48.592;8.868;2023-07-22T02:40:29;96744.44;;;10.87;100.00
6829;BME280;17930;48.592;8.868;2023-07-22T02:42:56;96746.22;;;10.97;100.00
6829;BME280;17930;48.592;8.868;2023-07-22T02:45:22;96734.00;;;10.92;100.00
6829;BME280;17930;48.592;8.868;2023-07-22T02:47:49;96738.06;;;10.75;100.00
6829;BME280;17930;48.592;8.868;2023-07-22T02:50:17;96746.53;;;10.52;100.00
6829;BME280;17930;48.592;8.868;2023-07-22T02:52:44;96742.44;;;10.41;100.00
6829;BME280;17930;48.592;8.868;2023-07-22T02:55:13;96738.31;;;10.35;100.00
6829;BME280;17930;48.592;8.868;2023-07-22T02:57:40;96739.38;;;10.34;100.00
6829;BME280;17930;48.592;8.868;2023-07-22T03:00:08;96734.16;;;10.29;100.00
6829;BME280;17930;48.592;8.868;2023-07-22T03:02:37;96732.91;;;10.27;100.00
6829;BME280;17930;48.592;8.868;2023-07-22T03:05:05;96734.47;;;10.23;100.00
6829;BME280;17930;48.592;8.868;2023-07-22T03:07:34;96733.06;;;10.40;100.00
6829;BME280;17930;48.592;8.868;2023-07-22T03:10:01;96726.00;;;10.79;100.00
6829;BME280;17930;48.592;8.868;2023-07-22T03:12:28;96725.97;;;10.84;100.00
6829;BME280;17930;48.592;8.868;2023-07-22T03:14:55;96731.56;;;10.68;100.00
6829;BME280;17930;48.592;8.868;2023-07-22T03:17:21;96731.34;;;10.64;100.00
6829;BME280;17930;48.592;8.868;2023-07-22T03:19:48;96725.28;;;10.73;100.00
6829;BME280;17930;48.592;8.868;2023-07-22T03:22:15;96729.22;;;10.66;100.00
6829;BME280;17930;48.592;8.868;2023-07-22T03:24:44;96730.22;;;10.75;100.00
6829;BME280;17930;48.592;8.868;2023-07-22T03:27:11;96729.84;;;10.53;100.00
6829;BME280;17930;48.592;8.868;2023-07-22T03:29:38;96723.19;;;10.37;100.00
6829;BME280;17930;48.592;8.868;2023-07-22T03:32:06;96726.63;;;10.28;100.00
6829;BME280;17930;48.592;8.868;2023-07-22T03:34:33;96713.25;;;10.39;100.00
6829;BME280;17930;48.592;8.868;2023-07-22T03:36:59;96721.53;;;10.51;100.00
6829;BME280;17930;48.592;8.868;2023-07-22T03:39:26;96731.34;;;10.64;100.00
6829;BME280;17930;48.592;8.868;2023-07-22T03:41:54;96718.16;;;10.79;100.00
6829;BME280;17930;48.592;8.868;2023-07-22T03:44:21;96722.88;;;10.82;100.00
6829;BME280;17930;48.592;8.868;2023-07-22T03:46:48;96720.94;;;10.92;100.00
6829;BME280;17930;48.592;8.868;2023-07-22T03:49:14;96721.84;;;10.78;100.00
6829;BME280;17930;48.592;8.868;2023-07-22T03:51:41;96720.66;;;10.94;100.00
6829;BME280;17930;48.592;8.868;2023-07-22T03:54:07;96720.59;;;11.04;100.00
6829;BME280;17930;48.592;8.868;2023-07-22T03:56:34;96720.13;;;10.97;100.00
6829;BME280;17930;48.592;8.868;2023-07-22T03:59:02;96713.78;;;11.03;100.00
6829;BME280;17930;48.592;8.868;2023-07-22T04:01:29;96715.16;;;11.00;100.00
6829;BME280;17930;48.592;8.868;2023-07-22T04:03:55;96719.94;;;11.17;100.00
6829;BME280;17930;48.592;8.868;2023-07-22T04:06:22;96715.72;;;11.21;100.00
6829;BME280;17930;48.592;8.868;2023-07-22T04:08:48;96717.91;;;11.09;100.00
6829;BME280;17930;48.592;8.868;2023-07-22T04:11:15;96705.13;;;11.07;100.00
6829;BME280;17930;48.592;8.868;2023-07-22T04:13:41;96704.19;;;11.26;100.00
6829;BME280;17930;48.592;8.868;2023-07-22T04:16:10;96710.97;;;11.27;100.00
6829;BME280;17930;48.592;8.868;2023-07-22T04:18:36;96715.16;;;11.23;100.00
6829;BME280;17930;48.592;8.868;2023-07-22T04:21:03;96716.28;;;11.41;100.00
6829;BME280;17930;48.592;8.868;2023-07-22T04:23:30;96712.84;;;11.45;100.00
6829;BME280;17930;48.592;8.868;2023-07-22T04:25:58;96717.19;;;11.31;100.00
6829;BME280;17930;48.592;8.868;2023-07-22T04:28:25;96709.75;;;11.43;100.00
6829;BME280;17930;48.592;8.868;2023-07-22T04:30:55;96706.56;;;11.51;100.00
6829;BME280;17930;48.592;8.868;2023-07-22T04:33:24;96712.34;;;11.48;100.00
6829;BME280;17930;48.592;8.868;2023-07-22T04:35:53;96712.00;;;11.26;100.00
6829;BME280;17930;48.592;8.868;2023-07-22T04:38:21;96716.94;;;11.28;100.00
6829;BME280;17930;48.592;8.868;2023-07-22T04:40:47;96724.75;;;11.33;100.00
6829;BME280;17930;48.592;8.868;2023-07-22T04:43:14;96717.81;;;11.19;100.00
6829;BME280;17930;48.592;8.868;2023-07-22T04:45:41;96716.78;;;11.20;100.00
6829;BME280;17930;48.592;8.868;2023-07-22T04:48:07;96727.28;;;11.38;100.00
6829;BME280;17930;48.592;8.868;2023-07-22T04:50:36;96720.22;;;11.38;100.00
6829;BME280;17930;48.592;8.868;2023-07-22T04:53:05;96715.25;;;11.42;100.00
6829;BME280;17930;48.592;8.868;2023-07-22T04:55:32;96715.25;;;11.65;100.00
6829;BME280;17930;48.592;8.868;2023-07-22T04:57:59;96713.00;;;11.59;100.00
6829;BME280;17930;48.592;8.868;2023-07-22T05:00:25;96714.28;;;11.61;100.00
6829;BME280;17930;48.592;8.868;2023-07-22T05:02:54;96718.31;;;11.72;100.00
6829;BME280;17930;48.592;8.868;2023-07-22T05:05:22;96719.03;;;11.77;100.00
6829;BME280;17930;48.592;8.868;2023-07-22T05:07:50;96721.41;;;11.97;100.00
6829;BME280;17930;48.592;8.868;2023-07-22T05:10:17;96724.13;;;12.11;100.00
6829;BME280;17930;48.592;8.868;2023-07-22T05:12:45;96727.09;;;12.41;100.00
6829;BME280;17930;48.592;8.868;2023-07-22T05:15:13;96720.97;;;12.50;100.00
6829;BME280;17930;48.592;8.868;2023-07-22T05:17:40;96732.06;;;12.61;100.00
6829;BME280;17930;48.592;8.868;2023-07-22T05:20:08;96733.91;;;12.60;100.00
6829;BME280;17930;48.592;8.868;2023-07-22T05:22:36;96731.13;;;12.70;100.00
6829;BME280;17930;48.592;8.868;2023-07-22T05:25:06;96734.19;;;13.09;100.00
6829;BME280;17930;48.592;8.868;2023-07-22T05:27:33;96731.41;;;13.19;100.00
6829;BME280;17930;48.592;8.868;2023-07-22T05:29:59;96736.47;;;13.29;100.00
6829;BME280;17930;48.592;8.868;2023-07-22T05:32:28;96738.34;;;13.41;100.00
6829;BME280;17930;48.592;8.868;2023-07-22T05:34:55;96741.69;;;13.60;100.00
6829;BME280;17930;48.592;8.868;2023-07-22T05:37:25;96739.34;;;13.99;100.00
6829;BME280;17930;48.592;8.868;2023-07-22T05:39:52;96730.34;;;14.40;100.00
6829;BME280;17930;48.592;8.868;2023-07-22T05:42:20;96734.72;;;14.44;100.00
6829;BME280;17930;48.592;8.868;2023-07-22T05:44:47;96736.88;;;14.64;100.00
6829;BME280;17930;48.592;8.868;2023-07-22T05:47:14;96739.31;;;14.96;100.00
6829;BME280;17930;48.592;8.868;2023-07-22T05:49:41;96740.59;;;15.07;100.00
6829;BME280;17930;48.592;8.868;2023-07-22T05:52:08;96746.94;;;15.28;100.00
6829;BME280;17930;48.592;8.868;2023-07-22T05:54:34;96753.88;;;15.45;100.00
6829;BME280;17930;48.592;8.868;2023-07-22T05:57:01;96754.47;;;15.42;100.00
6829;BME280;17930;48.592;8.868;2023-07-22T05:59:30;96762.00;;;15.66;100.00
6829;BME280;17930;48.592;8.868;2023-07-22T06:01:57;96758.25;;;15.58;100.00
6829;BME280;17930;48.592;8.868;2023-07-22T06:04:24;96751.09;;;15.50;100.00
6829;BME280;17930;48.592;8.868;2023-07-22T06:06:50;96755.16;;;15.95;100.00
6829;BME280;17930;48.592;8.868;2023-07-22T06:09:17;96756.19;;;16.24;100.00
6829;BME280;17930;48.592;8.868;2023-07-22T06:11:44;96757.47;;;16.43;100.00
6829;BME280;17930;48.592;8.868;2023-07-22T06:14:10;96756.41;;;16.44;100.00
6829;BME280;17930;48.592;8.868;2023-07-22T06:16:38;96761.53;;;17.00;100.00
6829;BME280;17930;48.592;8.868;2023-07-22T06:19:05;96761.66;;;17.12;100.00
6829;BME280;17930;48.592;8.868;2023-07-22T06:21:32;96765.84;;;17.38;100.00
6829;BME280;17930;48.592;8.868;2023-07-22T06:23:58;96769.88;;;17.19;100.00
6829;BME280;17930;48.592;8.868;2023-07-22T06:26:25;96773.16;;;17.33;100.00
6829;BME280;17930;48.592;8.868;2023-07-22T06:28:52;96771.88;;;17.39;100.00
6829;BME280;17930;48.592;8.868;2023-07-22T06:31:18;96769.81;;;17.61;100.00
6829;BME280;17930;48.592;8.868;2023-07-22T06:33:46;96775.41;;;18.05;100.00
6829;BME280;17930;48.592;8.868;2023-07-22T06:36:13;96770.72;;;18.48;100.00
6829;BME280;17930;48.592;8.868;2023-07-22T06:38:41;96764.59;;;18.76;100.00
6829;BME280;17930;48.592;8.868;2023-07-22T06:41:09;96764.22;;;19.06;100.00
6829;BME280;17930;48.592;8.868;2023-07-22T06:43:35;96772.59;;;19.08;100.00
6829;BME280;17930;48.592;8.868;2023-07-22T06:46:02;96765.22;;;19.34;100.00
6829;BME280;17930;48.592;8.868;2023-07-22T06:48:29;96769.78;;;19.13;100.00
6829;BME280;17930;48.592;8.868;2023-07-22T06:50:57;96761.41;;;19.55;100.00
6829;BME280;17930;48.592;8.868;2023-07-22T06:53:23;96770.44;;;20.22;100.00
6829;BME280;17930;48.592;8.868;2023-07-22T06:55:50;96765.47;;;20.32;100.00
6829;BME280;17930;48.592;8.868;2023-07-22T06:58:17;96769.19;;;20.67;100.00
6829;BME280;17930;48.592;8.868;2023-07-22T07:00:44;96759.03;;;20.69;100.00
6829;BME280;17930;48.592;8.868;2023-07-22T07:03:11;96766.59;;;20.94;100.00
6829;BME280;17930;48.592;8.868;2023-07-22T07:05:38;96761.59;;;21.05;100.00
6829;BME280;17930;48.592;8.868;2023-07-22T07:08:08;96757.69;;;20.75;100.00
6829;BME280;17930;48.592;8.868;2023-07-22T07:10:37;96762.91;;;21.10;100.00
6829;BME280;17930;48.592;8.868;2023-07-22T07:13:04;96761.19;;;21.45;100.00
6829;BME280;17930;48.592;8.868;2023-07-22T07:15:31;96763.31;;;22.13;100.00
6829;BME280;17930;48.592;8.868;2023-07-22T07:17:58;96763.66;;;22.58;100.00
6829;BME280;17930;48.592;8.868;2023-07-22T07:20:24;96756.75;;;23.47;100.00
6829;BME280;17930;48.592;8.868;2023-07-22T07:22:51;96760.16;;;22.72;100.00
6829;BME280;17930;48.592;8.868;2023-07-22T07:25:19;96763.56;;;22.39;100.00
6829;BME280;17930;48.592;8.868;2023-07-22T07:27:46;96761.88;;;22.46;100.00
6829;BME280;17930;48.592;8.868;2023-07-22T07:30:12;96753.94;;;23.18;100.00
6829;BME280;17930;48.592;8.868;2023-07-22T07:32:39;96755.72;;;23.33;100.00
6829;BME280;17930;48.592;8.868;2023-07-22T07:35:07;96758.41;;;23.14;100.00
6829;BME280;17930;48.592;8.868;2023-07-22T07:37:34;96757.34;;;23.78;100.00
6829;BME280;17930;48.592;8.868;2023-07-22T07:40:01;96749.47;;;24.33;100.00
6829;BME280;17930;48.592;8.868;2023-07-22T07:42:30;96753.06;;;24.67;100.00
6829;BME280;17930;48.592;8.868;2023-07-22T07:44:56;96755.22;;;25.49;100.00
6829;BME280;17930;48.592;8.868;2023-07-22T07:47:23;96749.41;;;25.76;100.00
6829;BME280;17930;48.592;8.868;2023-07-22T07:49:50;96750.22;;;25.77;100.00
6829;BME280;17930;48.592;8.868;2023-07-22T07:52:17;96743.56;;;26.03;100.00
6829;BME280;17930;48.592;8.868;2023-07-22T07:54:43;96746.84;;;26.30;100.00
6829;BME280;17930;48.592;8.868;2023-07-22T07:57:10;96738.94;;;27.14;100.00
6829;BME280;17930;48.592;8.868;2023-07-22T07:59:38;96733.03;;;26.81;100.00
6829;BME280;17930;48.592;8.868;2023-07-22T08:02:06;96728.78;;;27.72;97.77
6829;BME280;17930;48.592;8.868;2023-07-22T08:04:35;96730.69;;;27.75;93.00
6829;BME280;17930;48.592;8.868;2023-07-22T08:07:02;96738.34;;;27.59;87.00
6829;BME280;17930;48.592;8.868;2023-07-22T08:09:30;96742.22;;;26.27;100.00
6829;BME280;17930;48.592;8.868;2023-07-22T08:11:58;96737.09;;;27.32;95.54
6829;BME280;17930;48.592;8.868;2023-07-22T08:14:25;96735.31;;;27.98;85.63
6829;BME280;17930;48.592;8.868;2023-07-22T08:16:55;96742.06;;;27.34;74.58
6829;BME280;17930;48.592;8.868;2023-07-22T08:19:22;96739.63;;;26.33;68.03
6829;BME280;17930;48.592;8.868;2023-07-22T08:21:49;96729.28;;;26.35;69.18
6829;BME280;17930;48.592;8.868;2023-07-22T08:24:16;96725.63;;;26.07;66.93
6829;BME280;17930;48.592;8.868;2023-07-22T08:26:42;96728.28;;;26.04;68.36
6829;BME280;17930;48.592;8.868;2023-07-22T08:29:09;96721.31;;;25.56;71.19
6829;BME280;17930;48.592;8.868;2023-07-22T08:31:36;96729.00;;;26.51;72.03
6829;BME280;17930;48.592;8.868;2023-07-22T08:34:04;96717.66;;;27.97;63.69
6829;BME280;17930;48.592;8.868;2023-07-22T08:36:30;96703.88;;;27.82;59.47
6829;BME280;17930;48.592;8.868;2023-07-22T08:38:57;96726.13;;;26.83;58.98
6829;BME280;17930;48.592;8.868;2023-07-22T08:41:25;96724.56;;;25.36;63.85
6829;BME280;17930;48.592;8.868;2023-07-22T08:43:54;96727.94;;;25.00;64.18
6829;BME280;17930;48.592;8.868;2023-07-22T08:46:22;96720.22;;;24.37;65.98
6829;BME280;17930;48.592;8.868;2023-07-22T08:48:53;96732.97;;;24.24;67.86
6829;BME280;17930;48.592;8.868;2023-07-22T08:51:23;96738.09;;;24.11;69.31
6829;BME280;17930;48.592;8.868;2023-07-22T08:53:54;96728.34;;;23.96;73.14
6829;BME280;17930;48.592;8.868;2023-07-22T08:56:23;96735.28;;;24.26;74.48
6829;BME280;17930;48.592;8.868;2023-07-22T08:58:51;96722.53;;;24.97;71.23
6829;BME280;17930;48.592;8.868;2023-07-22T09:01:17;96729.94;;;26.22;70.24
6829;BME280;17930;48.592;8.868;2023-07-22T09:03:46;96714.50;;;27.47;64.33
6829;BME280;17930;48.592;8.868;2023-07-22T09:06:13;96727.00;;;27.01;65.61
6829;BME280;17930;48.592;8.868;2023-07-22T09:08:42;96718.44;;;26.15;68.10
6829;BME280;17930;48.592;8.868;2023-07-22T09:11:11;96722.72;;;25.07;70.40
6829;BME280;17930;48.592;8.868;2023-07-22T09:13:38;96731.44;;;25.04;70.86
6829;BME280;17930;48.592;8.868;2023-07-22T09:16:06;96733.00;;;24.28;71.84
6829;BME280;17930;48.592;8.868;2023-07-22T09:18:33;96735.97;;;23.75;75.18
6829;BME280;17930;48.592;8.868;2023-07-22T09:21:00;96745.03;;;23.71;76.17
6829;BME280;17930;48.592;8.868;2023-07-22T09:23:33;96742.84;;;23.35;76.51
6829;BME280;17930;48.592;8.868;2023-07-22T09:26:12;96741.59;;;23.10;80.76
6829;BME280;17930;48.592;8.868;2023-07-22T09:28:54;96741.78;;;23.20;81.89
6829;BME280;17930;48.592;8.868;2023-07-22T09:31:23;96747.16;;;22.86;84.48
6829;BME280;17930;48.592;8.868;2023-07-22T09:33:50;96742.69;;;22.90;84.87
6829;BME280;17930;48.592;8.868;2023-07-22T09:36:19;96739.75;;;22.95;84.25
6829;BME280;17930;48.592;8.868;2023-07-22T09:38:59;96737.75;;;22.92;84.70
6829;BME280;17930;48.592;8.868;2023-07-22T09:41:28;96738.03;;;22.68;88.02
6829;BME280;17930;48.592;8.868;2023-07-22T09:43:55;96734.03;;;23.53;88.15
6829;BME280;17930;48.592;8.868;2023-07-22T09:46:30;96721.44;;;25.30;80.95
6829;BME280;17930;48.592;8.868;2023-07-22T09:49:02;96721.75;;;25.26;76.10
6829;BME280;17930;48.592;8.868;2023-07-22T09:51:33;96717.94;;;24.94;77.69
6829;BME280;17930;48.592;8.868;2023-07-22T09:54:01;96715.25;;;24.90;78.15
6829;BME280;17930;48.592;8.868;2023-07-22T09:56:43;96720.09;;;25.14;78.08
6829;BME280;17930;48.592;8.868;2023-07-22T09:59:11;96715.84;;;25.82;75.29
6829;BME280;17930;48.592;8.868;2023-07-22T10:01:40;96721.66;;;27.05;71.96
6829;BME280;17930;48.592;8.868;2023-07-22T10:04:12;96691.53;;;27.46;61.65
6829;BME280;17930;48.592;8.868;2023-07-22T10:06:45;96688.16;;;28.04;61.47
6829;BME280;17930;48.592;8.868;2023-07-22T10:09:15;96696.19;;;28.04;60.64
6829;BME280;17930;48.592;8.868;2023-07-22T10:11:44;96693.91;;;27.82;59.90
6829;BME280;17930;48.592;8.868;2023-07-22T10:14:11;96698.31;;;27.02;61.88
6829;BME280;17930;48.592;8.868;2023-07-22T10:16:40;96700.03;;;26.06;60.67
6829;BME280;17930;48.592;8.868;2023-07-22T10:19:09;96700.63;;;27.10;58.34
6829;BME280;17930;48.592;8.868;2023-07-22T10:21:37;96697.66;;;27.50;58.47
6829;BME280;17930;48.592;8.868;2023-07-22T10:24:05;96698.13;;;28.21;58.74
6829;BME280;17930;48.592;8.868;2023-07-22T10:26:33;96681.66;;;29.32;56.46
6829;BME280;17930;48.592;8.868;2023-07-22T10:29:02;96683.69;;;29.11;55.36
6829;BME280;17930;48.592;8.868;2023-07-22T10:31:30;96699.09;;;27.02;57.30
6829;BME280;17930;48.592;8.868;2023-07-22T10:33:57;96703.56;;;26.88;59.82
6829;BME280;17930;48.592;8.868;2023-07-22T10:36:29;96700.28;;;26.41;61.34
6829;BME280;17930;48.592;8.868;2023-07-22T10:38:56;96689.28;;;27.62;61.45
6829;BME280;17930;48.592;8.868;2023-07-22T10:41:23;96692.94;;;29.03;58.88
6829;BME280;17930;48.592;8.868;2023-07-22T10:43:54;96683.25;;;29.26;56.93
6829;BME280;17930;48.592;8.868;2023-07-22T10:46:32;96692.28;;;27.50;61.26
6829;BME280;17930;48.592;8.868;2023-07-22T10:49:13;96705.72;;;26.51;65.56
6829;BME280;17930;48.592;8.868;2023-07-22T10:51:41;96697.56;;;25.48;69.95
6829;BME280;17930;48.592;8.868;2023-07-22T10:54:14;96702.84;;;25.80;72.42
6829;BME280;17930;48.592;8.868;2023-07-22T10:56:42;96695.38;;;25.96;72.38
6829;BME280;17930;48.592;8.868;2023-07-22T10:59:10;96686.84;;;26.34;69.91
6829;BME280;17930;48.592;8.868;2023-07-22T11:01:39;96682.78;;;27.90;66.75
6829;BME280;17930;48.592;8.868;2023-07-22T11:04:07;96670.94;;;29.29;61.77
6829;BME280;17930;48.592;8.868;2023-07-22T11:06:37;96675.88;;;27.72;61.11
6829;BME280;17930;48.592;8.868;2023-07-22T11:09:04;96677.06;;;27.95;62.94
6829;BME280;17930;48.592;8.868;2023-07-22T11:11:39;96655.69;;;29.66;61.02
6829;BME280;17930;48.592;8.868;2023-07-22T11:14:20;96662.41;;;30.35;54.47
6829;BME280;17930;48.592;8.868;2023-07-22T11:16:50;96657.69;;;30.09;54.63
6829;BME280;17930;48.592;8.868;2023-07-22T11:19:21;96649.38;;;28.40;56.76
6829;BME280;17930;48.592;8.868;2023-07-22T11:21:50;96649.44;;;27.74;59.97
6829;BME280;17930;48.592;8.868;2023-07-22T11:24:20;96673.56;;;26.48;63.38
6829;BME280;17930;48.592;8.868;2023-07-22T11:26:48;96667.50;;;25.58;67.00
6829;BME280;17930;48.592;8.868;2023-07-22T11:29:15;96659.06;;;26.56;65.95
6829;BME280;17930;48.592;8.868;2023-07-22T11:31:43;96649.72;;;28.56;60.87
6829;BME280;17930;48.592;8.868;2023-07-22T11:34:14;96652.50;;;27.73;61.29
6829;BME280;17930;48.592;8.868;2023-07-22T11:36:41;96649.69;;;26.93;61.35
6829;BME280;17930;48.592;8.868;2023-07-22T11:39:10;96657.34;;;26.27;63.13
6829;BME280;17930;48.592;8.868;2023-07-22T11:41:38;96654.47;;;25.53;65.42
6829;BME280;17930;48.592;8.868;2023-07-22T11:44:07;96657.50;;;25.94;64.44
6829;BME280;17930;48.592;8.868;2023-07-22T11:46:36;96638.25;;;27.20;63.50
6829;BME280;17930;48.592;8.868;2023-07-22T11:49:21;96630.72;;;29.04;58.28
6829;BME280;17930;48.592;8.868;2023-07-22T11:51:48;96619.66;;;30.03;56.24
6829;BME280;17930;48.592;8.868;2023-07-22T11:54:15;96618.63;;;30.64;54.13
6829;BME280;17930;48.592;8.868;2023-07-22T11:56:42;96620.75;;;30.46;51.91
6829;BME280;17930;48.592;8.868;2023-07-22T11:59:09;96609.44;;;30.58;51.30
6829;BME280;17930;48.592;8.868;2023-07-22T12:01:36;96621.84;;;30.52;51.64
6829;BME280;17930;48.592;8.868;2023-07-22T12:04:09;96608.88;;;31.03;50.27
6829;BME280;17930;48.592;8.868;2023-07-22T12:06:37;96611.97;;;30.72;50.11
6829;BME280;17930;48.592;8.868;2023-07-22T12:09:04;96609.34;;;28.84;54.18
6829;BME280;17930;48.592;8.868;2023-07-22T12:11:33;96616.47;;;27.84;57.37
6829;BME280;17930;48.592;8.868;2023-07-22T12:14:10;96623.84;;;26.54;60.60
6829;BME280;17930;48.592;8.868;2023-07-22T12:16:43;96617.22;;;27.95;59.76
6829;BME280;17930;48.592;8.868;2023-07-22T12:19:10;96597.03;;;28.86;56.03
6829;BME280;17930;48.592;8.868;2023-07-22T12:21:38;96598.03;;;30.47;54.47
6829;BME280;17930;48.592;8.868;2023-07-22T12:24:04;96607.75;;;30.71;49.99
6829;BME280;17930;48.592;8.868;2023-07-22T12:26:31;96597.34;;;30.73;50.22
6829;BME280;17930;48.592;8.868;2023-07-22T12:28:58;96592.88;;;31.45;49.13
6829;BME280;17930;48.592;8.868;2023-07-22T12:31:25;96583.22;;;32.90;47.16
6829;BME280;17930;48.592;8.868;2023-07-22T12:33:52;96595.63;;;31.42;46.92
6829;BME280;17930;48.592;8.868;2023-07-22T12:36:19;96591.72;;;30.24;47.44
6829;BME280;17930;48.592;8.868;2023-07-22T12:38:47;96600.59;;;30.91;46.99
6829;BME280;17930;48.592;8.868;2023-07-22T12:41:14;96592.38;;;30.68;48.18
6829;BME280;17930;48.592;8.868;2023-07-22T12:43:41;96583.19;;;30.65;47.78
6829;BME280;17930;48.592;8.868;2023-07-22T12:46:08;96578.78;;;30.49;48.16
6829;BME280;17930;48.592;8.868;2023-07-22T12:48:34;96569.91;;;31.34;48.14
6829;BME280;17930;48.592;8.868;2023-07-22T12:51:01;96573.47;;;31.54;46.69
6829;BME280;17930;48.592;8.868;2023-07-22T12:53:28;96568.34;;;32.43;45.45
6829;BME280;17930;48.592;8.868;2023-07-22T12:55:56;96560.25;;;32.43;45.46
6829;BME280;17930;48.592;8.868;2023-07-22T12:58:23;96582.50;;;29.85;48.78
6829;BME280;17930;48.592;8.868;2023-07-22T13:00:50;96581.84;;;28.52;51.26
6829;BME280;17930;48.592;8.868;2023-07-22T13:03:16;96591.94;;;27.27;52.94
6829;BME280;17930;48.592;8.868;2023-07-22T13:05:43;96590.28;;;26.81;54.57
6829;BME280;17930;48.592;8.868;2023-07-22T13:08:10;96581.59;;;29.00;51.56